createdAt,value
2023-04-12T00:03:36.605Z,101143.61
2023-04-12T00:06:07.381Z,101140.92
2023-04-12T00:08:37.406Z,101134.14
2023-04-12T00:11:06.341Z,101124.48
2023-04-12T00:13:35.473Z,101120.19
2023-04-12T00:16:05.508Z,101121.81
2023-04-12T00:18:33.712Z,101122.35
2023-04-12T00:21:02.473Z,101115.38
2023-04-12T00:23:31.334Z,101109.84
2023-04-12T00:25:59.957Z,101110.19
2023-04-12T00:28:28.725Z,101107.15
2023-04-12T00:30:58.479Z,101104.67
2023-04-12T00:33:27.399Z,101093.94
2023-04-12T00:35:56.229Z,101089.48
2023-04-12T00:38:25.281Z,101081.80
2023-04-12T00:40:53.817Z,101076.08
2023-04-12T00:43:22.677Z,101073.58
2023-04-12T00:45:51.539Z,101075.72
2023-04-12T00:48:20.950Z,101067.86
2023-04-12T00:50:50.046Z,101066.23
2023-04-12T00:53:19.254Z,101062.10
2023-04-12T00:55:50.373Z,101054.27
2023-04-12T00:58:20.275Z,101051.58
2023-04-12T01:00:49.208Z,101047.98
2023-04-12T01:03:22.369Z,101044.23
2023-04-12T01:05:55.988Z,101040.31
2023-04-12T01:08:24.158Z,101031.40
2023-04-12T01:11:05.802Z,101024.96
2023-04-12T01:13:59.712Z,101015.70
2023-04-12T01:16:36.128Z,101008.57
2023-04-12T01:19:18.564Z,101002.48
2023-04-12T01:22:02.275Z,100996.06
2023-04-12T01:24:55.640Z,100998.04
2023-04-12T01:27:53.514Z,100993.03
2023-04-12T01:30:26.823Z,100989.46
2023-04-12T01:32:59.808Z,100990.17
2023-04-12T01:35:34.967Z,100992.48
2023-04-12T01:38:04.680Z,100978.90
2023-04-12T01:40:36.211Z,100970.87
2023-04-12T01:43:05.178Z,100967.48
2023-04-12T01:45:34.785Z,100957.50
2023-04-12T01:48:06.400Z,100952.51
2023-04-12T01:50:38.324Z,100948.23
2023-04-12T01:53:14.604Z,100942.86
2023-04-12T01:55:45.536Z,100938.58
2023-04-12T01:58:17.732Z,100939.48
2023-04-12T02:00:47.064Z,100940.91
2023-04-12T02:03:15.710Z,100941.08
2023-04-12T02:05:45.339Z,100938.05
2023-04-12T02:08:14.435Z,100931.45
2023-04-12T02:10:44.403Z,100929.30
2023-04-12T02:13:13.207Z,100932.48
2023-04-12T02:15:41.329Z,100931.06
2023-04-12T02:18:10.750Z,100926.77
2023-04-12T02:20:39.832Z,100923.02
2023-04-12T02:23:08.004Z,100923.19
2023-04-12T02:25:36.449Z,100921.93
2023-04-12T02:28:05.556Z,100913.89
2023-04-12T02:30:33.867Z,100913.52
2023-04-12T02:33:02.578Z,100907.63
2023-04-12T02:35:33.636Z,100907.27
2023-04-12T02:38:03.009Z,100912.05
2023-04-12T02:40:31.578Z,100907.38
2023-04-12T02:43:00.951Z,100907.35
2023-04-12T02:45:29.573Z,100898.07
2023-04-12T02:47:57.978Z,100896.29
2023-04-12T02:50:26.758Z,100897.38
2023-04-12T02:52:55.436Z,100893.46
2023-04-12T02:55:23.601Z,100893.45
2023-04-12T02:57:51.794Z,100895.59
2023-04-12T03:00:20.534Z,100884.89
2023-04-12T03:02:50.165Z,100882.40
2023-04-12T03:05:22.772Z,100879.73
2023-04-12T03:07:51.364Z,100887.73
2023-04-12T03:10:19.529Z,100886.49
2023-04-12T03:12:48.310Z,100883.31
2023-04-12T03:15:16.462Z,100885.27
2023-04-12T03:17:44.821Z,100879.76
2023-04-12T03:20:13.884Z,100881.18
2023-04-12T03:22:42.080Z,100878.19
2023-04-12T03:25:10.558Z,100877.84
2023-04-12T03:27:38.756Z,100875.87
2023-04-12T03:30:08.697Z,100878.84
2023-04-12T03:32:36.873Z,100872.60
2023-04-12T03:35:06.263Z,100876.51
2023-04-12T03:37:35.176Z,100877.75
2023-04-12T03:40:03.582Z,100876.86
2023-04-12T03:42:33.764Z,100868.48
2023-04-12T03:45:03.105Z,100870.25
2023-04-12T03:47:32.153Z,100867.94
2023-04-12T03:50:11.631Z,100869.70
2023-04-12T03:52:41.003Z,100867.74
2023-04-12T03:55:09.360Z,100866.48
2023-04-12T03:57:37.565Z,100864.33
2023-04-12T04:00:07.525Z,100863.23
2023-04-12T04:02:36.453Z,100858.45
2023-04-12T04:05:06.042Z,100856.47
2023-04-12T04:07:34.164Z,100856.13
2023-04-12T04:10:03.068Z,100854.14
2023-04-12T04:12:31.684Z,100845.95
2023-04-12T04:14:59.873Z,100845.20
2023-04-12T04:17:28.441Z,100846.63
2023-04-12T04:19:57.077Z,100842.69
2023-04-12T04:22:25.648Z,100836.79
2023-04-12T04:24:54.634Z,100836.38
2023-04-12T04:27:23.593Z,100832.98
2023-04-12T04:29:52.789Z,100839.02
2023-04-12T04:32:21.566Z,100831.58
2023-04-12T04:34:50.362Z,100832.83
2023-04-12T04:37:19.134Z,100832.30
2023-04-12T04:39:47.942Z,100828.20
2023-04-12T04:42:17.471Z,100827.81
2023-04-12T04:44:46.722Z,100822.97
2023-04-12T04:47:14.769Z,100830.07
2023-04-12T04:49:45.207Z,100826.51
2023-04-12T04:52:14.643Z,100829.86
2023-04-12T04:54:43.251Z,100823.98
2023-04-12T04:57:11.397Z,100829.52
2023-04-12T04:59:39.503Z,100826.33
2023-04-12T05:02:08.614Z,100824.57
2023-04-12T05:04:37.970Z,100819.61
2023-04-12T05:07:06.129Z,100819.64
2023-04-12T05:09:34.709Z,100822.16
2023-04-12T05:12:03.095Z,100820.77
2023-04-12T05:14:45.476Z,100821.87
2023-04-12T05:17:15.774Z,100821.72
2023-04-12T05:19:44.069Z,100817.65
2023-04-12T05:22:12.962Z,100818.02
2023-04-12T05:24:41.677Z,100816.80
2023-04-12T05:27:09.789Z,100821.45
2023-04-12T05:29:38.371Z,100817.00
2023-04-12T05:32:06.809Z,100820.41
2023-04-12T05:34:35.101Z,100820.60
2023-04-12T05:37:04.616Z,100822.92
2023-04-12T05:39:33.974Z,100822.45
2023-04-12T05:42:02.556Z,100825.84
2023-04-12T05:44:31.146Z,100823.00
2023-04-12T05:46:59.730Z,100811.95
2023-04-12T05:49:30.457Z,100822.29
2023-04-12T05:51:59.126Z,100818.73
2023-04-12T05:54:27.637Z,100815.36
2023-04-12T05:56:56.225Z,100813.23
2023-04-12T05:59:24.868Z,100818.40
2023-04-12T06:01:54.080Z,100819.46
2023-04-12T06:04:22.846Z,100822.33
2023-04-12T06:06:52.214Z,100826.80
2023-04-12T06:09:21.154Z,100822.86
2023-04-12T06:11:49.454Z,100826.26
2023-04-12T06:14:18.091Z,100824.81
2023-04-12T06:16:46.954Z,100824.46
2023-04-12T06:19:16.031Z,100822.85
2023-04-12T06:21:44.763Z,100825.16
2023-04-12T06:24:13.144Z,100825.17
2023-04-12T06:26:42.553Z,100816.23
2023-04-12T06:29:10.715Z,100824.75
2023-04-12T06:31:40.408Z,100823.42
2023-04-12T06:34:09.804Z,100817.60
2023-04-12T06:36:38.194Z,100813.04
2023-04-12T06:39:07.411Z,100817.19
2023-04-12T06:41:35.953Z,100813.48
2023-04-12T06:44:04.225Z,100810.27
2023-04-12T06:46:33.179Z,100810.31
2023-04-12T06:49:01.742Z,100807.50
2023-04-12T06:51:31.135Z,100807.51
2023-04-12T06:54:00.077Z,100813.63
2023-04-12T06:56:28.734Z,100811.52
2023-04-12T06:58:57.044Z,100805.77
2023-04-12T07:01:26.467Z,100803.59
2023-04-12T07:03:54.785Z,100809.23
2023-04-12T07:06:26.115Z,100809.33
2023-04-12T07:08:55.008Z,100812.33
2023-04-12T07:11:23.756Z,100813.20
2023-04-12T07:13:53.175Z,100812.43
2023-04-12T07:16:21.662Z,100812.20
2023-04-12T07:18:49.988Z,100811.05
2023-04-12T07:21:18.955Z,100815.45
2023-04-12T07:23:51.947Z,100819.48
2023-04-12T07:26:20.496Z,100820.05
2023-04-12T07:28:49.197Z,100817.84
2023-04-12T07:31:17.803Z,100811.61
2023-04-12T07:33:46.684Z,100806.70
2023-04-12T07:36:16.540Z,100805.78
2023-04-12T07:38:45.832Z,100811.95
2023-04-12T07:41:14.636Z,100815.98
2023-04-12T07:43:43.138Z,100814.15
2023-04-12T07:46:12.855Z,100815.82
2023-04-12T07:48:41.419Z,100814.06
2023-04-12T07:51:10.513Z,100809.61
2023-04-12T07:53:39.320Z,100804.46
2023-04-12T07:56:08.610Z,100803.83
2023-04-12T07:58:36.668Z,100802.95
2023-04-12T08:01:06.253Z,100804.27
2023-04-12T08:03:35.603Z,100806.77
2023-04-12T08:06:05.938Z,100803.77
2023-04-12T08:08:35.139Z,100805.89
2023-04-12T08:11:04.422Z,100805.69
2023-04-12T08:13:34.595Z,100800.27
2023-04-12T08:16:03.350Z,100799.54
2023-04-12T08:18:31.743Z,100795.75
2023-04-12T08:20:59.829Z,100790.89
2023-04-12T08:23:29.958Z,100784.14
2023-04-12T08:25:58.121Z,100783.76
2023-04-12T08:28:26.439Z,100784.43
2023-04-12T08:30:54.677Z,100781.23
2023-04-12T08:33:23.356Z,100781.39
2023-04-12T08:35:52.108Z,100778.67
2023-04-12T08:38:25.416Z,100779.88
2023-04-12T08:40:59.990Z,100779.61
2023-04-12T08:43:29.905Z,100777.05
2023-04-12T08:45:59.459Z,100776.84
2023-04-12T08:48:28.502Z,100770.12
2023-04-12T08:50:57.629Z,100773.66
2023-04-12T08:53:27.428Z,100776.62
2023-04-12T08:55:56.286Z,100778.64
2023-04-12T08:58:25.542Z,100778.73
2023-04-12T09:00:54.665Z,100770.91
2023-04-12T09:03:23.553Z,100773.04
2023-04-12T09:05:52.362Z,100776.06
2023-04-12T09:08:20.988Z,100776.31
2023-04-12T09:10:49.537Z,100776.29
2023-04-12T09:13:32.284Z,100780.35
2023-04-12T09:16:02.304Z,100780.11
2023-04-12T09:18:49.176Z,100778.89
2023-04-12T09:21:18.659Z,100779.71
2023-04-12T09:24:13.371Z,100779.70
2023-04-12T09:26:43.056Z,100780.00
2023-04-12T09:29:24.718Z,100783.34
2023-04-12T09:32:03.093Z,100787.45
2023-04-12T09:34:33.716Z,100784.50
2023-04-12T09:37:16.238Z,100787.52
2023-04-12T09:39:45.123Z,100786.71
2023-04-12T09:42:29.835Z,100785.84
2023-04-12T09:45:02.047Z,100782.14
2023-04-12T09:47:40.700Z,100778.77
2023-04-12T09:50:10.237Z,100765.70
2023-04-12T09:52:39.551Z,100766.01
2023-04-12T09:55:12.674Z,100767.04
2023-04-12T09:57:45.110Z,100767.17
2023-04-12T10:00:14.959Z,100764.58
2023-04-12T10:02:47.701Z,100763.14
2023-04-12T10:05:24.531Z,100763.88
2023-04-12T10:07:54.963Z,100766.87
2023-04-12T10:10:24.108Z,100764.23
2023-04-12T10:12:54.107Z,100755.63
2023-04-12T10:15:22.278Z,100757.05
2023-04-12T10:17:53.368Z,100758.90
2023-04-12T10:20:24.869Z,100750.98
2023-04-12T10:22:57.277Z,100748.84
2023-04-12T10:25:27.572Z,100752.37
2023-04-12T10:27:56.801Z,100748.85
2023-04-12T10:30:26.525Z,100748.92
2023-04-12T10:33:04.613Z,100741.14
2023-04-12T10:36:01.279Z,100738.80
2023-04-12T10:38:44.766Z,100735.50
2023-04-12T10:41:20.865Z,100728.88
2023-04-12T10:43:51.421Z,100725.27
2023-04-12T10:46:45.984Z,100721.64
2023-04-12T10:49:15.690Z,100716.27
2023-04-12T10:52:12.507Z,100712.59
2023-04-12T10:54:41.175Z,100713.27
2023-04-12T10:57:45.526Z,100709.08
2023-04-12T11:00:15.035Z,100705.21
2023-04-12T11:03:08.850Z,100695.78
2023-04-12T11:05:57.421Z,100691.66
2023-04-12T11:08:27.416Z,100692.34
2023-04-12T11:11:03.230Z,100698.82
2023-04-12T11:13:39.443Z,100687.76
2023-04-12T11:16:08.362Z,100682.81
2023-04-12T11:18:37.383Z,100687.12
2023-04-12T11:21:06.600Z,100673.92
2023-04-12T11:23:35.598Z,100673.64
2023-04-12T11:26:04.396Z,100668.80
2023-04-12T11:28:34.744Z,100661.41
2023-04-12T11:31:04.246Z,100647.92
2023-04-12T11:33:39.629Z,100652.28
2023-04-12T11:36:11.684Z,100638.98
2023-04-12T11:38:40.529Z,100644.30
2023-04-12T11:41:09.562Z,100628.71
2023-04-12T11:43:38.766Z,100626.56
2023-04-12T11:46:08.004Z,100625.70
2023-04-12T11:48:36.858Z,100626.41
2023-04-12T11:51:22.318Z,100615.08
2023-04-12T11:53:55.456Z,100618.77
2023-04-12T11:56:24.638Z,100615.31
2023-04-12T11:58:52.658Z,100613.92
2023-04-12T12:01:23.019Z,100605.66
2023-04-12T12:03:52.024Z,100603.30
2023-04-12T12:06:21.775Z,100599.70
2023-04-12T12:08:51.426Z,100596.88
2023-04-12T12:11:23.820Z,100592.02
2023-04-12T12:13:54.613Z,100585.94
2023-04-12T12:16:27.855Z,100580.22
2023-04-12T12:18:57.970Z,100583.02
2023-04-12T12:21:26.481Z,100575.73
2023-04-12T12:23:57.139Z,100567.77
2023-04-12T12:26:27.941Z,100567.23
2023-04-12T12:28:58.257Z,100570.73
2023-04-12T12:31:28.381Z,100563.55
2023-04-12T12:33:59.460Z,100564.42
2023-04-12T12:36:33.483Z,100551.80
2023-04-12T12:39:13.073Z,100551.88
2023-04-12T12:41:42.438Z,100552.29
2023-04-12T12:44:11.749Z,100543.73
2023-04-12T12:46:53.471Z,100545.77
2023-04-12T12:49:23.583Z,100537.14
2023-04-12T12:51:52.554Z,100532.30
2023-04-12T12:54:38.644Z,100530.94
2023-04-12T12:57:11.139Z,100524.39
2023-04-12T12:59:42.897Z,100529.13
2023-04-12T13:02:11.371Z,100536.15
2023-04-12T13:04:40.319Z,100538.36
2023-04-12T13:07:08.526Z,100533.42
2023-04-12T13:09:36.717Z,100539.00
2023-04-12T13:12:05.207Z,100540.23
2023-04-12T13:14:33.463Z,100530.39
2023-04-12T13:17:02.364Z,100525.52
2023-04-12T13:19:30.874Z,100524.51
2023-04-12T13:21:59.707Z,100528.34
2023-04-12T13:24:28.457Z,100514.66
2023-04-12T13:26:56.962Z,100507.95
2023-04-12T13:29:25.627Z,100514.94
2023-04-12T13:31:55.153Z,100515.09
2023-04-12T13:34:23.851Z,100514.02
2023-04-12T13:36:52.062Z,100499.51
2023-04-12T13:39:21.306Z,100487.33
2023-04-12T13:41:49.447Z,100476.27
2023-04-12T13:44:18.015Z,100477.16
2023-04-12T13:46:47.013Z,100468.45
2023-04-12T13:49:15.702Z,100475.31
2023-04-12T13:51:44.389Z,100475.10
2023-04-12T13:54:12.774Z,100473.77
2023-04-12T13:56:41.046Z,100455.25
2023-04-12T13:59:09.764Z,100460.49
2023-04-12T14:01:40.101Z,100447.39
2023-04-12T14:04:09.036Z,100439.59
2023-04-12T14:06:39.095Z,100430.73
2023-04-12T14:09:07.749Z,100425.91
2023-04-12T14:11:47.406Z,100426.69
2023-04-12T14:14:16.802Z,100427.92
2023-04-12T14:16:46.687Z,100431.48
2023-04-12T14:19:16.504Z,100428.54
2023-04-12T14:21:45.660Z,100429.09
2023-04-12T14:24:19.122Z,100433.98
2023-04-12T14:26:48.421Z,100432.83
2023-04-12T14:29:17.251Z,100429.05
2023-04-12T14:31:46.921Z,100420.77
2023-04-12T14:34:15.332Z,100419.46
2023-04-12T14:36:43.970Z,100423.27
2023-04-12T14:39:14.053Z,100417.85
2023-04-12T14:41:43.328Z,100415.62
2023-04-12T14:44:12.027Z,100407.57
2023-04-12T14:46:40.860Z,100402.95
2023-04-12T14:49:09.124Z,100401.99
2023-04-12T14:51:37.805Z,100400.45
2023-04-12T14:54:07.193Z,100391.00
2023-04-12T14:56:44.574Z,100391.36
2023-04-12T14:59:19.352Z,100398.98
2023-04-12T15:01:48.050Z,100402.95
2023-04-12T15:04:17.170Z,100396.02
2023-04-12T15:06:45.646Z,100400.17
2023-04-12T15:09:14.712Z,100398.11
2023-04-12T15:11:43.853Z,100400.98
2023-04-12T15:14:15.219Z,100394.27
2023-04-12T15:16:45.837Z,100377.44
2023-04-12T15:19:20.212Z,100375.48
2023-04-12T15:21:53.250Z,100384.46
2023-04-12T15:24:22.753Z,100376.26
2023-04-12T15:26:52.856Z,100374.55
2023-04-12T15:29:21.670Z,100380.19
2023-04-12T15:31:50.529Z,100384.20
2023-04-12T15:34:19.360Z,100387.77
2023-04-12T15:36:49.217Z,100390.10
2023-04-12T15:39:19.604Z,100380.41
2023-04-12T15:41:48.273Z,100386.45
2023-04-12T15:44:16.659Z,100391.30
2023-04-12T15:46:53.289Z,100382.33
2023-04-12T15:49:28.766Z,100369.20
2023-04-12T15:51:56.995Z,100376.45
2023-04-12T15:54:26.320Z,100377.84
2023-04-12T15:56:55.002Z,100365.53
2023-04-12T15:59:23.706Z,100363.00
2023-04-12T16:01:53.165Z,100359.89
2023-04-12T16:04:22.784Z,100363.59
2023-04-12T16:06:51.337Z,100362.95
2023-04-12T16:09:20.824Z,100352.77
2023-04-12T16:11:50.166Z,100351.29
2023-04-12T16:14:20.091Z,100362.92
2023-04-12T16:16:48.758Z,100364.30
2023-04-12T16:19:18.554Z,100361.54
2023-04-12T16:21:47.645Z,100365.20
2023-04-12T16:24:16.551Z,100361.16
2023-04-12T16:26:45.387Z,100361.83
2023-04-12T16:29:14.693Z,100370.81
2023-04-12T16:31:43.417Z,100350.85
2023-04-12T16:34:12.345Z,100332.98
2023-04-12T16:36:41.816Z,100348.08
2023-04-12T16:39:10.560Z,100356.46
2023-04-12T16:41:40.012Z,100351.76
2023-04-12T16:44:09.002Z,100352.29
2023-04-12T16:46:38.545Z,100347.39
2023-04-12T16:49:06.873Z,100354.41
2023-04-12T16:51:37.513Z,100355.52
2023-04-12T16:54:06.315Z,100369.80
2023-04-12T16:56:34.898Z,100359.44
2023-04-12T16:59:03.876Z,100355.27
2023-04-12T17:01:31.923Z,100354.89
2023-04-12T17:04:01.734Z,100357.33
2023-04-12T17:06:31.495Z,100355.42
2023-04-12T17:09:00.635Z,100365.80
2023-04-12T17:11:28.887Z,100375.74
2023-04-12T17:13:57.811Z,100380.16
2023-04-12T17:16:26.355Z,100384.05
2023-04-12T17:18:55.001Z,100391.59
2023-04-12T17:21:24.287Z,100380.21
2023-04-12T17:23:53.648Z,100381.88
2023-04-12T17:26:23.108Z,100374.52
2023-04-12T17:28:52.236Z,100372.52
2023-04-12T17:31:21.922Z,100369.99
2023-04-12T17:33:50.759Z,100372.34
2023-04-12T17:36:20.839Z,100377.98
2023-04-12T17:38:49.513Z,100374.20
2023-04-12T17:41:17.902Z,100379.39
2023-04-12T17:43:47.265Z,100381.04
2023-04-12T17:46:16.106Z,100379.45
2023-04-12T17:48:44.431Z,100380.30
2023-04-12T17:51:13.492Z,100385.29
2023-04-12T17:53:42.603Z,100380.18
2023-04-12T17:56:11.533Z,100380.02
2023-04-12T17:58:39.850Z,100373.73
2023-04-12T18:01:08.534Z,100378.55
2023-04-12T18:03:40.298Z,100376.80
2023-04-12T18:06:08.724Z,100376.48
2023-04-12T18:08:37.719Z,100376.62
2023-04-12T18:11:07.175Z,100373.30
2023-04-12T18:13:35.250Z,100377.13
2023-04-12T18:16:04.640Z,100378.44
2023-04-12T18:18:34.191Z,100376.67
2023-04-12T18:21:04.774Z,100372.16
2023-04-12T18:23:34.141Z,100379.63
2023-04-12T18:26:05.528Z,100375.36
2023-04-12T18:28:34.543Z,100381.16
2023-04-12T18:31:02.696Z,100384.04
2023-04-12T18:33:32.080Z,100379.66
2023-04-12T18:36:00.786Z,100369.26
2023-04-12T18:38:29.018Z,100371.98
2023-04-12T18:40:57.213Z,100367.42
2023-04-12T18:43:26.031Z,100370.42
2023-04-12T18:45:55.160Z,100378.57
2023-04-12T18:48:23.998Z,100369.44
2023-04-12T18:50:52.773Z,100368.27
2023-04-12T18:53:20.921Z,100369.39
2023-04-12T18:55:49.138Z,100374.71
2023-04-12T18:58:17.329Z,100384.86
2023-04-12T19:00:45.626Z,100392.87
2023-04-12T19:03:14.193Z,100401.21
2023-04-12T19:05:44.100Z,100416.42
2023-04-12T19:08:12.728Z,100428.98
2023-04-12T19:10:41.732Z,100442.77
2023-04-12T19:13:10.436Z,100444.86
2023-04-12T19:15:38.758Z,100452.16
2023-04-12T19:18:07.499Z,100457.56
2023-04-12T19:20:36.271Z,100464.22
2023-04-12T19:23:06.618Z,100468.00
2023-04-12T19:25:35.378Z,100474.31
2023-04-12T19:28:04.313Z,100481.34
2023-04-12T19:30:33.623Z,100481.39
2023-04-12T19:33:02.070Z,100479.09
2023-04-12T19:35:32.277Z,100480.75
2023-04-12T19:38:04.747Z,100482.59
2023-04-12T19:40:33.517Z,100491.58
2023-04-12T19:43:01.823Z,100501.89
2023-04-12T19:45:30.207Z,100508.63
2023-04-12T19:47:58.995Z,100515.70
2023-04-12T19:50:27.372Z,100515.64
2023-04-12T19:52:56.352Z,100523.52
2023-04-12T19:55:25.337Z,100530.77
2023-04-12T19:57:54.626Z,100533.02
2023-04-12T20:00:23.366Z,100535.05
2023-04-12T20:02:54.623Z,100540.87
2023-04-12T20:05:23.974Z,100548.89
2023-04-12T20:07:52.874Z,100553.48
2023-04-12T20:10:23.030Z,100559.38
2023-04-12T20:12:51.287Z,100565.11
2023-04-12T20:15:20.774Z,100572.80
2023-04-12T20:17:50.234Z,100574.19
2023-04-12T20:20:19.207Z,100585.35
2023-04-12T20:22:48.910Z,100591.02
2023-04-12T20:25:18.695Z,100588.20
2023-04-12T20:27:47.922Z,100589.73
2023-04-12T20:30:16.603Z,100595.16
2023-04-12T20:32:45.293Z,100596.27
2023-04-12T20:35:13.844Z,100600.13
2023-04-12T20:37:42.638Z,100601.27
2023-04-12T20:40:12.014Z,100609.09
2023-04-12T20:42:40.630Z,100611.13
2023-04-12T20:45:09.717Z,100614.23
2023-04-12T20:47:38.321Z,100610.84
2023-04-12T20:50:07.545Z,100614.98
2023-04-12T20:52:37.145Z,100619.13
2023-04-12T20:55:06.715Z,100620.92
2023-04-12T20:57:35.301Z,100622.23
2023-04-12T21:00:03.913Z,100619.76
2023-04-12T21:02:33.849Z,100625.95
2023-04-12T21:05:02.079Z,100623.14
2023-04-12T21:07:30.885Z,100620.82
2023-04-12T21:10:00.607Z,100623.60
2023-04-12T21:12:29.290Z,100625.11
2023-04-12T21:14:57.635Z,100628.11
2023-04-12T21:17:26.667Z,100625.64
2023-04-12T21:19:55.581Z,100625.66
2023-04-12T21:22:24.489Z,100630.15
2023-04-12T21:24:53.264Z,100639.70
2023-04-12T21:27:21.274Z,100635.23
2023-04-12T21:29:49.602Z,100626.62
2023-04-12T21:32:18.299Z,100627.88
2023-04-12T21:34:47.448Z,100629.71
2023-04-12T21:37:16.197Z,100628.71
2023-04-12T21:39:44.766Z,100632.06
2023-04-12T21:42:13.830Z,100633.92
2023-04-12T21:44:42.444Z,100638.88
2023-04-12T21:47:11.026Z,100640.17
2023-04-12T21:49:39.594Z,100644.36
2023-04-12T21:52:08.872Z,100641.73
2023-04-12T21:54:37.274Z,100649.90
2023-04-12T21:57:05.992Z,100655.90
2023-04-12T21:59:34.760Z,100659.55
2023-04-12T22:02:04.729Z,100653.85
2023-04-12T22:04:33.777Z,100650.43
2023-04-12T22:07:03.162Z,100651.29
2023-04-12T22:09:31.952Z,100655.92
2023-04-12T22:12:01.678Z,100663.09
2023-04-12T22:14:30.720Z,100662.35
2023-04-12T22:16:59.216Z,100658.60
2023-04-12T22:19:27.939Z,100664.91
2023-04-12T22:21:56.243Z,100658.44
2023-04-12T22:24:25.538Z,100663.17
2023-04-12T22:26:53.782Z,100667.19
2023-04-12T22:29:24.480Z,100668.52
2023-04-12T22:31:53.005Z,100664.10
2023-04-12T22:34:22.049Z,100662.73
2023-04-12T22:36:51.238Z,100662.77
2023-04-12T22:39:20.848Z,100667.16
2023-04-12T22:41:50.752Z,100664.17
2023-04-12T22:44:23.153Z,100668.21
2023-04-12T22:46:54.412Z,100671.90
2023-04-12T22:49:27.564Z,100674.13
2023-04-12T22:51:56.827Z,100674.73
2023-04-12T22:54:26.344Z,100677.52
2023-04-12T22:56:54.715Z,100680.28
2023-04-12T22:59:23.067Z,100678.17
2023-04-12T23:01:51.769Z,100678.40
2023-04-12T23:04:20.957Z,100677.02
2023-04-12T23:06:53.544Z,100671.48
2023-04-12T23:09:22.499Z,100673.38
2023-04-12T23:11:50.816Z,100674.69
2023-04-12T23:14:20.234Z,100686.80
2023-04-12T23:16:49.474Z,100691.04
2023-04-12T23:19:18.067Z,100697.05
2023-04-12T23:21:47.428Z,100701.79
2023-04-12T23:24:16.096Z,100702.59
2023-04-12T23:26:44.423Z,100712.74
2023-04-12T23:29:13.692Z,100712.10
2023-04-12T23:31:42.829Z,100710.02
2023-04-12T23:34:11.028Z,100717.85
2023-04-12T23:36:39.621Z,100723.68
2023-04-12T23:39:08.632Z,100729.31
2023-04-12T23:41:37.433Z,100734.96
2023-04-12T23:44:05.683Z,100748.54
2023-04-12T23:46:34.970Z,100753.65
2023-04-12T23:49:03.191Z,100758.42
2023-04-12T23:51:31.744Z,100760.63
2023-04-12T23:54:01.669Z,100758.73
2023-04-12T23:56:30.374Z,100756.48
2023-04-12T23:58:58.717Z,100761.44
